Terminal Aerodrome Forecast
Issued by NWS

Home | Current Version | Previous Version | Text Only | Print | Product List | Glossary On
Versions: 1 2 3 4 5 6 7 8 9 10 11 12 13 14 15 16 17 18 19
000
FTUS42 TJSJ 301221 RRA
TAFJBQ
TAF
TJBQ 301221Z 3012/0112 10004KT P6SM -RA FEW025 BKN050 BKN110
     FM301430 07010KT P6SM VCSH SCT025 SCT050 BKN120
     FM301700 06012G18KT P6SM VCTS SCT022CB BKN040 BKN080
     FM302300 09008KT P6SM SCT025 SCT050 BKN120=

USA.gov is the U.S. government's official web portal to all federal, state and local government web resources and services.